Time,TemperatureF,DewpointF,PressureIn,WindDirection,WindDirectionDegrees,WindSpeedMPH,WindSpeedGustMPH,Humidity,HourlyPrecipIn,Conditions,Clouds,dailyrainin,SoftwareType,DateUTC
2013-06-17 00:12:00,59.0,32.0,-100.00,ENE,60,7.0,11.0,36,-99.99,,,0.00,,2013-06-17 06:12:00,
2013-06-17 00:22:00,59.0,32.0,-100.00,ENE,60,7.0,11.0,36,-99.99,,,0.00,,2013-06-17 06:22:00,
2013-06-17 00:53:00,57.0,34.0,-100.00,ENE,65,4.0,9.0,42,-99.99,,,0.00,,2013-06-17 06:53:00,
2013-06-17 01:02:00,57.0,34.0,-100.00,ENE,65,4.0,9.0,42,-99.99,,,0.00,,2013-06-17 07:02:00,
2013-06-17 01:11:00,57.0,34.0,-100.00,NE,55,6.0,12.0,42,-99.99,,,0.00,,2013-06-17 07:11:00,
2013-06-17 01:22:00,57.0,34.0,-100.00,NE,55,6.0,12.0,42,-99.99,,,0.00,,2013-06-17 07:22:00,
2013-06-17 01:33:00,56.0,36.0,-100.00,ENE,60,5.0,8.0,47,-99.99,,,0.00,,2013-06-17 07:33:00,
2013-06-17 01:42:00,56.0,36.0,-100.00,ENE,60,5.0,8.0,47,-99.99,,,0.00,,2013-06-17 07:42:00,
2013-06-17 01:52:00,55.0,38.0,-100.00,NE,55,9.0,12.0,54,-99.99,,,0.00,,2013-06-17 07:52:00,
2013-06-17 02:01:00,55.0,38.0,-100.00,NE,55,9.0,12.0,54,-99.99,,,0.00,,2013-06-17 08:01:00,
2013-06-17 02:11:00,55.0,38.0,-100.00,ENE,60,7.0,13.0,54,-99.99,,,0.00,,2013-06-17 08:11:00,
2013-06-17 02:22:00,55.0,38.0,-100.00,ENE,60,7.0,13.0,54,-99.99,,,0.00,,2013-06-17 08:22:00,
2013-06-17 02:33:00,55.0,38.0,-100.00,ENE,60,7.0,13.0,54,-99.99,,,0.00,,2013-06-17 08:33:00,
2013-06-17 02:43:00,55.0,38.0,-100.00,ENE,60,7.0,13.0,54,-99.99,,,0.00,,2013-06-17 08:43:00,
2013-06-17 02:52:00,53.0,39.0,-100.00,NE,35,4.0,7.0,58,-99.99,,,0.00,,2013-06-17 08:52:00,
2013-06-17 03:02:00,53.0,39.0,-100.00,NE,35,4.0,7.0,58,-99.99,,,0.00,,2013-06-17 09:02:00,
2013-06-17 03:11:00,54.0,38.0,-100.00,ENE,70,7.0,11.0,53,-99.99,,,0.00,,2013-06-17 09:11:00,
2013-06-17 03:34:00,51.0,39.0,-100.00,SE,130,2.0,5.0,62,-99.99,,,-99.99,,2013-06-17 09:34:00,
2013-06-17 03:43:00,51.0,39.0,-100.00,SE,130,2.0,5.0,62,-99.99,,,-99.99,,2013-06-17 09:43:00,
2013-06-17 03:52:00,54.0,37.0,-100.00,NE,50,6.0,12.0,52,-99.99,,,0.00,,2013-06-17 09:52:00,
2013-06-17 04:01:00,54.0,38.0,-100.00,ENE,65,4.0,11.0,53,-99.99,,,0.00,,2013-06-17 10:01:00,
2013-06-17 04:02:00,54.0,37.0,-100.00,NE,50,6.0,12.0,52,-99.99,,,0.00,,2013-06-17 10:02:00,
2013-06-17 04:12:00,54.0,38.0,-100.00,ENE,65,3.0,9.0,53,-99.99,,,0.00,,2013-06-17 10:12:00,
2013-06-17 04:22:00,54.0,38.0,-100.00,ENE,65,3.0,9.0,53,-99.99,,,0.00,,2013-06-17 10:22:00,
2013-06-17 04:33:00,54.0,38.0,-100.00,ENE,65,4.0,11.0,53,-99.99,,,0.00,,2013-06-17 10:33:00,
2013-06-17 04:42:00,54.0,38.0,-100.00,ENE,65,4.0,11.0,53,-99.99,,,0.00,,2013-06-17 10:42:00,
2013-06-17 04:53:00,54.0,38.0,-100.00,ENE,65,4.0,11.0,53,-99.99,,,0.00,,2013-06-17 10:53:00,
2013-06-17 05:12:00,54.0,39.0,-100.00,East,80,4.0,10.0,56,-99.99,,,0.00,,2013-06-17 11:12:00,
2013-06-17 05:23:00,54.0,39.0,-100.00,East,80,4.0,10.0,56,-99.99,,,0.00,,2013-06-17 11:23:00,
2013-06-17 05:33:00,52.0,39.0,-100.00,South,175,1.0,6.0,61,-99.99,,,-99.99,,2013-06-17 11:33:00,
2013-06-17 05:43:00,52.0,39.0,-100.00,South,175,1.0,6.0,61,-99.99,,,-99.99,,2013-06-17 11:43:00,
2013-06-17 05:53:00,51.0,40.0,-100.00,SSW,200,0.0,4.0,65,-99.99,,,0.00,,2013-06-17 11:53:00,
2013-06-17 06:11:00,50.0,41.0,-100.00,WNW,300,2.0,4.0,71,-99.99,,,0.00,,2013-06-17 12:11:00,
2013-06-17 06:22:00,50.0,41.0,-100.00,WNW,300,2.0,4.0,71,-99.99,,,0.00,,2013-06-17 12:22:00,
2013-06-17 06:33:00,50.0,43.0,-100.00,NW,305,3.0,4.0,75,-99.99,,,0.00,,2013-06-17 12:33:00,
2013-06-17 06:43:00,50.0,43.0,-100.00,NW,305,3.0,4.0,75,-99.99,,,0.00,,2013-06-17 12:43:00,
2013-06-17 06:53:00,47.0,41.0,-100.00,North,10,1.0,4.0,79,-99.99,,,0.00,,2013-06-17 12:53:00,
2013-06-17 07:01:00,47.0,41.0,-100.00,North,10,1.0,4.0,79,-99.99,,,0.00,,2013-06-17 13:01:00,
2013-06-17 07:11:00,50.0,41.0,-100.00,ENE,60,2.0,3.0,72,-99.99,,,0.00,,2013-06-17 13:11:00,
2013-06-17 07:22:00,50.0,41.0,-100.00,ENE,60,2.0,3.0,72,-99.99,,,0.00,,2013-06-17 13:22:00,
2013-06-17 07:32:00,53.0,40.0,-100.00,NNE,30,2.0,3.0,63,-99.99,,,0.00,,2013-06-17 13:32:00,
2013-06-17 07:43:00,53.0,40.0,-100.00,NNE,30,2.0,3.0,63,-99.99,,,0.00,,2013-06-17 13:43:00,
2013-06-17 07:52:00,52.0,41.0,-100.00,NE,45,3.0,4.0,65,-99.99,,,0.00,,2013-06-17 13:52:00,
2013-06-17 08:00:00,54.0,42.0,-100.00,NW,325,0.0,1.0,64,-99.99,,,0.00,,2013-06-17 14:00:00,
2013-06-17 08:02:00,52.0,41.0,-100.00,NE,45,3.0,4.0,65,-99.99,,,0.00,,2013-06-17 14:02:00,
2013-06-17 08:11:00,53.0,41.0,-100.00,NE,40,1.0,3.0,62,-99.99,,,0.00,,2013-06-17 14:11:00,
2013-06-17 08:22:00,53.0,41.0,-100.00,NE,40,1.0,3.0,62,-99.99,,,0.00,,2013-06-17 14:22:00,
2013-06-17 08:34:00,54.0,42.0,-100.00,NW,325,0.0,1.0,64,-99.99,,,0.00,,2013-06-17 14:34:00,
2013-06-17 08:43:00,54.0,42.0,-100.00,NW,325,0.0,1.0,64,-99.99,,,0.00,,2013-06-17 14:43:00,
2013-06-17 08:53:00,54.0,42.0,-100.00,NW,325,0.0,1.0,64,-99.99,,,0.00,,2013-06-17 14:53:00,
2013-06-17 09:01:00,56.0,44.0,-100.00,SSW,205,2.0,3.0,64,-99.99,,,0.00,,2013-06-17 15:01:00,
2013-06-17 09:12:00,56.0,43.0,-100.00,SW,225,1.0,1.0,61,-99.99,,,0.00,,2013-06-17 15:12:00,
2013-06-17 09:22:00,56.0,43.0,-100.00,SW,225,1.0,1.0,61,-99.99,,,0.00,,2013-06-17 15:22:00,
2013-06-17 09:33:00,56.0,44.0,-100.00,SSW,205,2.0,3.0,64,-99.99,,,0.00,,2013-06-17 15:33:00,
2013-06-17 09:43:00,56.0,44.0,-100.00,SSW,205,2.0,3.0,64,-99.99,,,0.00,,2013-06-17 15:43:00,
2013-06-17 09:52:00,56.0,44.0,-100.00,SSW,205,2.0,3.0,64,-99.99,,,0.00,,2013-06-17 15:52:00,
2013-06-17 10:01:00,60.0,45.0,-100.00,SW,225,1.0,2.0,58,-99.99,,,0.00,,2013-06-17 16:01:00,
2013-06-17 10:11:00,61.0,45.0,-100.00,WNW,285,1.0,2.0,56,-99.99,,,0.00,,2013-06-17 16:11:00,
2013-06-17 10:22:00,61.0,45.0,-100.00,WNW,285,1.0,2.0,56,-99.99,,,0.00,,2013-06-17 16:22:00,
2013-06-17 10:33:00,60.0,45.0,-100.00,SW,225,1.0,2.0,58,-99.99,,,0.00,,2013-06-17 16:33:00,
2013-06-17 10:43:00,60.0,45.0,-100.00,SW,225,1.0,2.0,58,-99.99,,,0.00,,2013-06-17 16:43:00,
2013-06-17 10:53:00,60.0,45.0,-100.00,SW,225,1.0,2.0,58,-99.99,,,0.00,,2013-06-17 16:53:00,
2013-06-17 11:11:00,64.0,45.0,-100.00,WSW,250,3.0,4.0,50,-99.99,,,0.00,,2013-06-17 17:11:00,
2013-06-17 11:12:00,62.0,46.0,-100.00,WSW,245,2.0,3.0,54,-99.99,,,0.00,,2013-06-17 17:12:00,
2013-06-17 11:22:00,62.0,46.0,-100.00,WSW,245,2.0,3.0,54,-99.99,,,0.00,,2013-06-17 17:22:00,
2013-06-17 11:33:00,63.0,44.0,-100.00,WSW,240,1.0,3.0,50,-99.99,,,0.00,,2013-06-17 17:33:00,
2013-06-17 11:43:00,63.0,44.0,-100.00,WSW,240,1.0,3.0,50,-99.99,,,0.00,,2013-06-17 17:43:00,
2013-06-17 11:52:00,64.0,45.0,-100.00,WSW,250,3.0,4.0,50,-99.99,,,0.00,,2013-06-17 17:52:00,
2013-06-17 12:01:00,64.0,45.0,-100.00,WSW,250,3.0,4.0,50,-99.99,,,0.00,,2013-06-17 18:01:00,
2013-06-17 12:33:00,68.0,37.0,-100.00,SE,135,3.0,6.0,32,-99.99,,,0.00,,2013-06-17 18:33:00,
2013-06-17 12:43:00,68.0,37.0,-100.00,SE,135,3.0,6.0,32,-99.99,,,0.00,,2013-06-17 18:43:00,
2013-06-17 12:53:00,68.0,37.0,-100.00,SE,135,3.0,6.0,32,-99.99,,,0.00,,2013-06-17 18:53:00,
2013-06-17 13:00:00,71.0,33.0,-100.00,South,185,4.0,7.0,25,-99.99,,,0.00,,2013-06-17 19:00:00,
2013-06-17 13:02:00,68.0,37.0,-100.00,SE,135,3.0,6.0,32,-99.99,,,0.00,,2013-06-17 19:02:00,
2013-06-17 13:11:00,69.0,35.0,-100.00,South,180,3.0,7.0,28,-99.99,,,0.00,,2013-06-17 19:11:00,
2013-06-17 13:22:00,69.0,35.0,-100.00,South,180,3.0,7.0,28,-99.99,,,0.00,,2013-06-17 19:22:00,
2013-06-17 13:31:00,69.0,39.0,-100.00,SSW,210,8.0,10.0,34,-99.99,,,0.00,,2013-06-17 19:31:00,
2013-06-17 13:33:00,71.0,33.0,-100.00,South,185,4.0,7.0,25,-99.99,,,0.00,,2013-06-17 19:33:00,
2013-06-17 13:43:00,71.0,33.0,-100.00,South,185,4.0,7.0,25,-99.99,,,0.00,,2013-06-17 19:43:00,
2013-06-17 13:53:00,71.0,33.0,-100.00,South,185,4.0,7.0,25,-99.99,,,0.00,,2013-06-17 19:53:00,
2013-06-17 14:11:00,69.0,39.0,-100.00,SSW,210,8.0,10.0,34,-99.99,,,0.00,,2013-06-17 20:11:00,
2013-06-17 14:22:00,69.0,39.0,-100.00,SSW,210,8.0,10.0,34,-99.99,,,0.00,,2013-06-17 20:22:00,
2013-06-17 14:43:00,69.0,34.0,-100.00,WSW,250,1.0,9.0,27,-99.99,,,0.00,,2013-06-17 20:43:00,
2013-06-17 14:52:00,70.0,33.0,-100.00,ESE,110,4.0,8.0,25,-99.99,,,0.00,,2013-06-17 20:52:00,
2013-06-17 15:01:00,70.0,33.0,-100.00,ESE,110,4.0,8.0,25,-99.99,,,0.00,,2013-06-17 21:01:00,
2013-06-17 15:12:00,74.0,33.0,-100.00,ESE,110,3.0,8.0,22,-99.99,,,0.00,,2013-06-17 21:12:00,
2013-06-17 15:22:00,74.0,33.0,-100.00,ESE,110,3.0,8.0,22,-99.99,,,0.00,,2013-06-17 21:22:00,
2013-06-17 15:33:00,74.0,32.0,-100.00,West,270,0.0,4.0,22,-99.99,,,0.00,,2013-06-17 21:33:00,
2013-06-17 15:43:00,74.0,32.0,-100.00,West,270,0.0,4.0,22,-99.99,,,0.00,,2013-06-17 21:43:00,
2013-06-17 15:52:00,74.0,32.0,-100.00,West,270,0.0,4.0,22,-99.99,,,0.00,,2013-06-17 21:52:00,
2013-06-17 16:11:00,72.0,34.0,-100.00,West,265,3.0,5.0,24,-99.99,,,0.00,,2013-06-17 22:11:00,
2013-06-17 16:22:00,72.0,34.0,-100.00,West,265,3.0,5.0,24,-99.99,,,0.00,,2013-06-17 22:22:00,
2013-06-17 16:33:00,72.0,34.0,-100.00,NW,305,4.0,8.0,25,-99.99,,,0.00,,2013-06-17 22:33:00,
2013-06-17 16:43:00,72.0,34.0,-100.00,NW,305,4.0,8.0,25,-99.99,,,0.00,,2013-06-17 22:43:00,
2013-06-17 16:53:00,71.0,34.0,-100.00,WSW,240,3.0,8.0,25,-99.99,,,0.00,,2013-06-17 22:53:00,
2013-06-17 17:02:00,71.0,34.0,-100.00,WSW,240,3.0,8.0,25,-99.99,,,0.00,,2013-06-17 23:02:00,
2013-06-17 17:11:00,70.0,45.0,-100.00,WSW,240,4.0,6.0,40,-99.99,,,0.00,,2013-06-17 23:11:00,
2013-06-17 17:22:00,70.0,45.0,-100.00,WSW,240,4.0,6.0,40,-99.99,,,0.00,,2013-06-17 23:22:00,
2013-06-17 17:32:00,74.0,29.0,-100.00,NNW,330,1.0,7.0,19,-99.99,,,0.00,,2013-06-17 23:32:00,
2013-06-17 17:42:00,74.0,29.0,-100.00,NNW,330,1.0,7.0,19,-99.99,,,0.00,,2013-06-17 23:42:00,
2013-06-17 17:52:00,74.0,43.0,-100.00,WNW,295,4.0,9.0,32,-99.99,,,0.00,,2013-06-17 23:52:00,
2013-06-17 18:01:00,74.0,43.0,-100.00,WNW,295,4.0,9.0,32,-99.99,,,0.00,,2013-06-18 00:01:00,
2013-06-17 18:12:00,76.0,41.0,-100.00,NW,310,5.0,8.0,29,-99.99,,,0.00,,2013-06-18 00:12:00,
2013-06-17 18:22:00,76.0,41.0,-100.00,NW,310,5.0,8.0,29,-99.99,,,0.00,,2013-06-18 00:22:00,
2013-06-17 18:32:00,76.0,41.0,-100.00,NW,310,5.0,8.0,29,-99.99,,,0.00,,2013-06-18 00:32:00,
2013-06-17 18:43:00,74.0,41.0,-100.00,WNW,300,6.0,8.0,31,-99.99,,,0.00,,2013-06-18 00:43:00,
2013-06-17 18:52:00,73.0,44.0,-100.00,WNW,290,6.0,11.0,36,-99.99,,,0.00,,2013-06-18 00:52:00,
2013-06-17 19:01:00,73.0,44.0,-100.00,WNW,290,6.0,11.0,36,-99.99,,,0.00,,2013-06-18 01:01:00,
2013-06-17 19:11:00,72.0,41.0,-100.00,NW,305,6.0,10.0,33,-99.99,,,0.00,,2013-06-18 01:11:00,
2013-06-17 19:23:00,72.0,41.0,-100.00,NW,305,6.0,10.0,33,-99.99,,,0.00,,2013-06-18 01:23:00,
2013-06-17 19:33:00,69.0,39.0,-100.00,SE,125,4.0,8.0,34,-99.99,,,0.00,,2013-06-18 01:33:00,
2013-06-17 19:44:00,69.0,39.0,-100.00,SE,125,4.0,8.0,34,-99.99,,,0.00,,2013-06-18 01:44:00,
2013-06-17 19:53:00,70.0,36.0,-100.00,ESE,110,2.0,4.0,29,-99.99,,,0.00,,2013-06-18 01:53:00,
2013-06-17 20:02:00,70.0,36.0,-100.00,ESE,110,2.0,4.0,29,-99.99,,,0.00,,2013-06-18 02:02:00,
2013-06-17 20:11:00,69.0,40.0,-100.00,South,175,1.0,6.0,34,-99.99,,,0.00,,2013-06-18 02:11:00,
2013-06-17 20:22:00,69.0,40.0,-100.00,South,175,1.0,6.0,34,-99.99,,,0.00,,2013-06-18 02:22:00,
2013-06-17 20:34:00,67.0,38.0,-100.00,NE,45,5.0,11.0,34,-99.99,,,0.00,,2013-06-18 02:34:00,
2013-06-17 20:43:00,67.0,38.0,-100.00,NE,45,5.0,11.0,34,-99.99,,,0.00,,2013-06-18 02:43:00,
2013-06-17 20:53:00,67.0,39.0,-100.00,NE,45,4.0,7.0,35,-99.99,,,0.00,,2013-06-18 02:53:00,
2013-06-17 21:02:00,67.0,39.0,-100.00,NE,45,4.0,7.0,35,-99.99,,,0.00,,2013-06-18 03:02:00,
2013-06-17 21:12:00,61.0,46.0,-100.00,NE,40,6.0,17.0,59,-99.99,,,0.00,,2013-06-18 03:12:00,
2013-06-17 21:33:00,59.0,41.0,-100.00,ENE,60,8.0,11.0,50,-99.99,,,0.00,,2013-06-18 03:33:00,
2013-06-17 21:42:00,59.0,41.0,-100.00,ENE,60,8.0,11.0,50,-99.99,,,0.00,,2013-06-18 03:42:00,
2013-06-17 22:11:00,56.0,44.0,-100.00,South,170,1.0,3.0,66,-99.99,,,0.00,,2013-06-18 04:11:00,
2013-06-17 22:22:00,56.0,44.0,-100.00,South,170,1.0,3.0,66,-99.99,,,0.00,,2013-06-18 04:22:00,
2013-06-17 22:43:00,55.0,43.0,-100.00,ENE,60,1.0,4.0,65,-99.99,,,0.00,,2013-06-18 04:43:00,
2013-06-17 22:53:00,52.0,47.0,-100.00,North,5,0.0,1.0,82,-99.99,,,0.00,,2013-06-18 04:53:00,
2013-06-17 23:12:00,51.0,47.0,-100.00,NE,35,2.0,3.0,84,-99.99,,,0.00,,2013-06-18 05:12:00,
2013-06-17 23:32:00,56.0,43.0,-100.00,East,100,2.0,6.0,62,-99.99,,,0.00,,2013-06-18 05:32:00,
2013-06-17 23:33:00,59.0,35.0,-100.00,NNE,25,12.0,21.0,40,-99.99,,,0.00,,2013-06-18 05:33:00,
2013-06-17 23:43:00,59.0,35.0,-100.00,NNE,25,12.0,21.0,40,-99.99,,,0.00,,2013-06-18 05:43:00,
2013-06-17 23:53:00,59.0,35.0,-100.00,NNE,25,12.0,21.0,40,-99.99,,,0.00,,2013-06-18 05:53:00,